sensor_id;sensor_type;location;lat;lon;timestamp;temperature;humidity
26583;DHT22;14230;45.382;10.998;2023-03-05T00:01:24;7.40;99.90
26583;DHT22;14230;45.382;10.998;2023-03-05T00:03:53;7.40;99.90
26583;DHT22;14230;45.382;10.998;2023-03-05T00:06:23;7.30;99.90
26583;DHT22;14230;45.382;10.998;2023-03-05T00:08:51;7.30;99.90
26583;DHT22;14230;45.382;10.998;2023-03-05T00:11:20;7.30;99.90
26583;DHT22;14230;45.382;10.998;2023-03-05T00:13:50;7.20;99.90
26583;DHT22;14230;45.382;10.998;2023-03-05T00:16:19;7.20;99.90
26583;DHT22;14230;45.382;10.998;2023-03-05T00:18:47;7.20;99.90
26583;DHT22;14230;45.382;10.998;2023-03-05T00:21:19;7.20;99.90
26583;DHT22;14230;45.382;10.998;2023-03-05T00:23:47;7.10;99.90
26583;DHT22;14230;45.382;10.998;2023-03-05T00:26:18;7.00;99.90
26583;DHT22;14230;45.382;10.998;2023-03-05T00:28:48;7.00;99.90
26583;DHT22;14230;45.382;10.998;2023-03-05T00:31:20;7.00;99.90
26583;DHT22;14230;45.382;10.998;2023-03-05T00:33:52;7.00;99.90
26583;DHT22;14230;45.382;10.998;2023-03-05T00:36:20;6.90;99.90
26583;DHT22;14230;45.382;10.998;2023-03-05T00:38:48;6.80;99.90
26583;DHT22;14230;45.382;10.998;2023-03-05T00:41:15;6.70;99.90
26583;DHT22;14230;45.382;10.998;2023-03-05T00:43:43;6.60;99.90
26583;DHT22;14230;45.382;10.998;2023-03-05T00:46:10;6.50;99.90
26583;DHT22;14230;45.382;10.998;2023-03-05T00:48:38;6.50;99.90
26583;DHT22;14230;45.382;10.998;2023-03-05T00:51:06;6.40;99.90
26583;DHT22;14230;45.382;10.998;2023-03-05T00:53:33;6.20;99.90
26583;DHT22;14230;45.382;10.998;2023-03-05T00:56:01;6.00;99.90
26583;DHT22;14230;45.382;10.998;2023-03-05T00:58:28;5.90;99.90
26583;DHT22;14230;45.382;10.998;2023-03-05T01:00:57;5.70;99.90
26583;DHT22;14230;45.382;10.998;2023-03-05T01:03:27;5.70;99.90
26583;DHT22;14230;45.382;10.998;2023-03-05T01:05:57;5.70;99.90
26583;DHT22;14230;45.382;10.998;2023-03-05T01:08:26;5.60;99.90
26583;DHT22;14230;45.382;10.998;2023-03-05T01:10:53;5.60;99.90
26583;DHT22;14230;45.382;10.998;2023-03-05T01:13:21;5.60;99.90
26583;DHT22;14230;45.382;10.998;2023-03-05T01:15:49;5.70;99.90
26583;DHT22;14230;45.382;10.998;2023-03-05T01:18:18;5.70;99.90
26583;DHT22;14230;45.382;10.998;2023-03-05T01:20:46;5.70;99.90
26583;DHT22;14230;45.382;10.998;2023-03-05T01:23:14;5.60;99.90
26583;DHT22;14230;45.382;10.998;2023-03-05T01:25:42;5.40;99.90
26583;DHT22;14230;45.382;10.998;2023-03-05T01:28:09;5.40;99.90
26583;DHT22;14230;45.382;10.998;2023-03-05T01:30:37;5.40;99.90
26583;DHT22;14230;45.382;10.998;2023-03-05T01:33:04;5.40;99.90
26583;DHT22;14230;45.382;10.998;2023-03-05T01:35:32;5.40;99.90
26583;DHT22;14230;45.382;10.998;2023-03-05T01:37:59;5.40;99.90
26583;DHT22;14230;45.382;10.998;2023-03-05T01:40:28;5.40;99.90
26583;DHT22;14230;45.382;10.998;2023-03-05T01:43:07;5.40;99.90
26583;DHT22;14230;45.382;10.998;2023-03-05T01:48:51;5.40;99.90
26583;DHT22;14230;45.382;10.998;2023-03-05T01:51:25;5.40;99.90
26583;DHT22;14230;45.382;10.998;2023-03-05T01:53:53;5.40;99.90
26583;DHT22;14230;45.382;10.998;2023-03-05T01:56:25;5.50;99.90
26583;DHT22;14230;45.382;10.998;2023-03-05T01:58:53;5.60;99.90
26583;DHT22;14230;45.382;10.998;2023-03-05T02:01:24;5.50;99.90
26583;DHT22;14230;45.382;10.998;2023-03-05T02:03:51;5.50;99.90
26583;DHT22;14230;45.382;10.998;2023-03-05T02:06:19;5.50;99.90
26583;DHT22;14230;45.382;10.998;2023-03-05T02:08:46;5.40;99.90
26583;DHT22;14230;45.382;10.998;2023-03-05T02:11:14;5.40;99.90
26583;DHT22;14230;45.382;10.998;2023-03-05T02:13:41;5.40;99.90
26583;DHT22;14230;45.382;10.998;2023-03-05T02:16:09;5.40;99.90
26583;DHT22;14230;45.382;10.998;2023-03-05T02:18:37;5.40;99.90
26583;DHT22;14230;45.382;10.998;2023-03-05T02:21:05;5.30;99.90
26583;DHT22;14230;45.382;10.998;2023-03-05T02:23:35;5.30;99.90
26583;DHT22;14230;45.382;10.998;2023-03-05T02:26:07;5.30;99.90
26583;DHT22;14230;45.382;10.998;2023-03-05T02:28:43;5.20;99.90
26583;DHT22;14230;45.382;10.998;2023-03-05T02:31:16;5.20;99.90
26583;DHT22;14230;45.382;10.998;2023-03-05T02:33:44;5.10;99.90
26583;DHT22;14230;45.382;10.998;2023-03-05T02:36:13;5.00;99.90
26583;DHT22;14230;45.382;10.998;2023-03-05T02:38:44;5.10;99.90
26583;DHT22;14230;45.382;10.998;2023-03-05T02:41:12;5.10;99.90
26583;DHT22;14230;45.382;10.998;2023-03-05T02:43:40;5.10;99.90
26583;DHT22;14230;45.382;10.998;2023-03-05T02:46:08;5.20;99.90
26583;DHT22;14230;45.382;10.998;2023-03-05T02:48:36;5.30;99.90
26583;DHT22;14230;45.382;10.998;2023-03-05T02:51:04;5.20;99.90
26583;DHT22;14230;45.382;10.998;2023-03-05T02:53:33;5.30;99.90
26583;DHT22;14230;45.382;10.998;2023-03-05T02:56:01;5.30;99.90
26583;DHT22;14230;45.382;10.998;2023-03-05T02:58:32;5.40;99.90
26583;DHT22;14230;45.382;10.998;2023-03-05T03:00:59;5.40;99.90
26583;DHT22;14230;45.382;10.998;2023-03-05T03:03:27;5.50;99.90
26583;DHT22;14230;45.382;10.998;2023-03-05T03:05:54;5.50;99.90
26583;DHT22;14230;45.382;10.998;2023-03-05T03:08:22;5.40;99.90
26583;DHT22;14230;45.382;10.998;2023-03-05T03:10:49;5.40;99.90
26583;DHT22;14230;45.382;10.998;2023-03-05T03:13:17;5.40;99.90
26583;DHT22;14230;45.382;10.998;2023-03-05T03:15:45;5.40;99.90
26583;DHT22;14230;45.382;10.998;2023-03-05T03:18:12;5.50;99.90
26583;DHT22;14230;45.382;10.998;2023-03-05T03:20:40;5.40;99.90
26583;DHT22;14230;45.382;10.998;2023-03-05T03:23:07;5.40;99.90
26583;DHT22;14230;45.382;10.998;2023-03-05T03:25:34;5.30;99.90
26583;DHT22;14230;45.382;10.998;2023-03-05T03:28:02;5.30;99.90
26583;DHT22;14230;45.382;10.998;2023-03-05T03:30:29;5.30;99.90
26583;DHT22;14230;45.382;10.998;2023-03-05T03:32:57;5.30;99.90
26583;DHT22;14230;45.382;10.998;2023-03-05T03:35:24;5.30;99.90
26583;DHT22;14230;45.382;10.998;2023-03-05T03:37:52;5.40;99.90
26583;DHT22;14230;45.382;10.998;2023-03-05T03:40:19;5.40;99.90
26583;DHT22;14230;45.382;10.998;2023-03-05T03:42:47;5.50;99.90
26583;DHT22;14230;45.382;10.998;2023-03-05T03:45:14;5.50;99.90
26583;DHT22;14230;45.382;10.998;2023-03-05T03:47:42;5.40;99.90
26583;DHT22;14230;45.382;10.998;2023-03-05T03:50:10;5.30;99.90
26583;DHT22;14230;45.382;10.998;2023-03-05T03:52:37;5.30;99.90
26583;DHT22;14230;45.382;10.998;2023-03-05T03:55:05;5.30;99.90
26583;DHT22;14230;45.382;10.998;2023-03-05T03:57:33;5.40;99.90
26583;DHT22;14230;45.382;10.998;2023-03-05T04:00:00;5.40;99.90
26583;DHT22;14230;45.382;10.998;2023-03-05T04:02:38;5.40;99.90
26583;DHT22;14230;45.382;10.998;2023-03-05T04:05:06;5.40;99.90
26583;DHT22;14230;45.382;10.998;2023-03-05T04:07:33;5.30;99.90
26583;DHT22;14230;45.382;10.998;2023-03-05T04:10:01;5.30;99.90
26583;DHT22;14230;45.382;10.998;2023-03-05T04:12:28;5.30;99.90
26583;DHT22;14230;45.382;10.998;2023-03-05T04:14:56;5.30;99.90
26583;DHT22;14230;45.382;10.998;2023-03-05T04:17:23;5.30;99.90
26583;DHT22;14230;45.382;10.998;2023-03-05T04:19:51;5.20;99.90
26583;DHT22;14230;45.382;10.998;2023-03-05T04:22:18;5.20;99.90
26583;DHT22;14230;45.382;10.998;2023-03-05T04:24:46;5.20;99.90
26583;DHT22;14230;45.382;10.998;2023-03-05T04:27:13;5.10;99.90
26583;DHT22;14230;45.382;10.998;2023-03-05T04:29:41;5.30;99.90
26583;DHT22;14230;45.382;10.998;2023-03-05T04:32:08;5.20;99.90
26583;DHT22;14230;45.382;10.998;2023-03-05T04:34:36;5.20;99.90
26583;DHT22;14230;45.382;10.998;2023-03-05T04:37:04;5.20;99.90
26583;DHT22;14230;45.382;10.998;2023-03-05T04:39:31;5.20;99.90
26583;DHT22;14230;45.382;10.998;2023-03-05T04:41:59;5.20;99.90
26583;DHT22;14230;45.382;10.998;2023-03-05T04:44:26;5.20;99.90
26583;DHT22;14230;45.382;10.998;2023-03-05T04:46:54;5.20;99.90
26583;DHT22;14230;45.382;10.998;2023-03-05T04:49:21;5.30;99.90
26583;DHT22;14230;45.382;10.998;2023-03-05T04:51:49;5.20;99.90
26583;DHT22;14230;45.382;10.998;2023-03-05T04:54:16;5.20;99.90
26583;DHT22;14230;45.382;10.998;2023-03-05T04:56:44;5.00;99.90
26583;DHT22;14230;45.382;10.998;2023-03-05T04:59:11;4.60;99.90
26583;DHT22;14230;45.382;10.998;2023-03-05T05:01:39;4.40;99.90
26583;DHT22;14230;45.382;10.998;2023-03-05T05:04:07;4.30;99.90
26583;DHT22;14230;45.382;10.998;2023-03-05T05:06:35;4.20;99.90
26583;DHT22;14230;45.382;10.998;2023-03-05T05:09:03;4.20;99.90
26583;DHT22;14230;45.382;10.998;2023-03-05T05:11:30;4.10;99.90
26583;DHT22;14230;45.382;10.998;2023-03-05T05:13:57;4.00;99.90
26583;DHT22;14230;45.382;10.998;2023-03-05T05:16:25;4.10;99.90
26583;DHT22;14230;45.382;10.998;2023-03-05T05:18:52;4.20;99.90
26583;DHT22;14230;45.382;10.998;2023-03-05T05:21:20;4.20;99.90
26583;DHT22;14230;45.382;10.998;2023-03-05T05:23:47;4.20;99.90
26583;DHT22;14230;45.382;10.998;2023-03-05T05:26:15;4.20;99.90
26583;DHT22;14230;45.382;10.998;2023-03-05T05:28:43;4.20;99.90
26583;DHT22;14230;45.382;10.998;2023-03-05T05:31:12;4.30;99.90
26583;DHT22;14230;45.382;10.998;2023-03-05T05:33:41;4.20;99.90
26583;DHT22;14230;45.382;10.998;2023-03-05T05:36:12;4.20;99.90
26583;DHT22;14230;45.382;10.998;2023-03-05T05:38:41;4.30;99.90
26583;DHT22;14230;45.382;10.998;2023-03-05T05:41:11;4.30;99.90
26583;DHT22;14230;45.382;10.998;2023-03-05T05:43:40;4.30;99.90
26583;DHT22;14230;45.382;10.998;2023-03-05T05:46:11;4.20;99.90
26583;DHT22;14230;45.382;10.998;2023-03-05T05:48:39;4.20;99.90
26583;DHT22;14230;45.382;10.998;2023-03-05T05:51:08;4.20;99.90
26583;DHT22;14230;45.382;10.998;2023-03-05T05:53:36;4.30;99.90
26583;DHT22;14230;45.382;10.998;2023-03-05T05:56:05;4.30;99.90
26583;DHT22;14230;45.382;10.998;2023-03-05T05:58:34;4.40;99.90
26583;DHT22;14230;45.382;10.998;2023-03-05T06:01:10;4.40;99.90
26583;DHT22;14230;45.382;10.998;2023-03-05T06:03:38;4.50;99.90
26583;DHT22;14230;45.382;10.998;2023-03-05T06:06:10;4.60;99.90
26583;DHT22;14230;45.382;10.998;2023-03-05T06:08:38;4.70;99.90
26583;DHT22;14230;45.382;10.998;2023-03-05T06:11:06;4.80;99.90
26583;DHT22;14230;45.382;10.998;2023-03-05T06:13:33;4.80;99.90
26583;DHT22;14230;45.382;10.998;2023-03-05T06:16:04;4.90;99.90
26583;DHT22;14230;45.382;10.998;2023-03-05T06:18:33;5.00;99.90
26583;DHT22;14230;45.382;10.998;2023-03-05T06:21:06;5.10;99.90
26583;DHT22;14230;45.382;10.998;2023-03-05T06:23:34;5.40;99.90
26583;DHT22;14230;45.382;10.998;2023-03-05T06:26:03;5.80;99.90
26583;DHT22;14230;45.382;10.998;2023-03-05T06:28:32;6.20;99.90
26583;DHT22;14230;45.382;10.998;2023-03-05T06:31:11;6.60;99.90
26583;DHT22;14230;45.382;10.998;2023-03-05T06:33:40;7.00;99.90
26583;DHT22;14230;45.382;10.998;2023-03-05T06:36:13;7.40;99.90
26583;DHT22;14230;45.382;10.998;2023-03-05T06:38:41;7.60;99.90
26583;DHT22;14230;45.382;10.998;2023-03-05T06:41:14;7.90;99.90
26583;DHT22;14230;45.382;10.998;2023-03-05T06:43:44;8.20;99.90
26583;DHT22;14230;45.382;10.998;2023-03-05T06:48:41;8.80;99.90
26583;DHT22;14230;45.382;10.998;2023-03-05T06:51:18;8.90;99.90
26583;DHT22;14230;45.382;10.998;2023-03-05T06:53:47;8.70;99.90
26583;DHT22;14230;45.382;10.998;2023-03-05T06:56:17;8.80;99.90
26583;DHT22;14230;45.382;10.998;2023-03-05T06:58:46;9.00;99.90
26583;DHT22;14230;45.382;10.998;2023-03-05T07:01:14;9.20;99.90
26583;DHT22;14230;45.382;10.998;2023-03-05T07:03:42;9.60;99.90
26583;DHT22;14230;45.382;10.998;2023-03-05T07:06:12;10.20;99.90
26583;DHT22;14230;45.382;10.998;2023-03-05T07:08:40;10.80;99.90
26583;DHT22;14230;45.382;10.998;2023-03-05T07:11:09;11.40;99.90
26583;DHT22;14230;45.382;10.998;2023-03-05T07:13:37;11.90;99.90
26583;DHT22;14230;45.382;10.998;2023-03-05T07:16:10;11.70;99.90
26583;DHT22;14230;45.382;10.998;2023-03-05T07:18:39;12.20;99.90
26583;DHT22;14230;45.382;10.998;2023-03-05T07:21:08;12.90;99.90
26583;DHT22;14230;45.382;10.998;2023-03-05T07:23:37;13.30;99.90
26583;DHT22;14230;45.382;10.998;2023-03-05T07:26:05;13.50;99.90
26583;DHT22;14230;45.382;10.998;2023-03-05T07:28:33;13.60;99.90
26583;DHT22;14230;45.382;10.998;2023-03-05T07:31:03;13.60;99.90
26583;DHT22;14230;45.382;10.998;2023-03-05T07:33:32;13.90;99.90
26583;DHT22;14230;45.382;10.998;2023-03-05T07:36:00;14.20;99.90
26583;DHT22;14230;45.382;10.998;2023-03-05T07:38:27;14.20;99.90
26583;DHT22;14230;45.382;10.998;2023-03-05T07:40:55;14.50;99.90
26583;DHT22;14230;45.382;10.998;2023-03-05T07:43:22;14.60;99.90
26583;DHT22;14230;45.382;10.998;2023-03-05T07:45:50;15.10;99.90
26583;DHT22;14230;45.382;10.998;2023-03-05T07:48:18;15.50;99.90
26583;DHT22;14230;45.382;10.998;2023-03-05T07:50:48;16.00;99.90
26583;DHT22;14230;45.382;10.998;2023-03-05T07:53:17;16.60;99.90
26583;DHT22;14230;45.382;10.998;2023-03-05T07:55:45;16.70;99.90
26583;DHT22;14230;45.382;10.998;2023-03-05T07:58:13;16.70;99.90
26583;DHT22;14230;45.382;10.998;2023-03-05T08:00:41;17.30;99.90
26583;DHT22;14230;45.382;10.998;2023-03-05T08:03:08;17.50;99.90
26583;DHT22;14230;45.382;10.998;2023-03-05T08:05:38;17.60;99.90
26583;DHT22;14230;45.382;10.998;2023-03-05T08:08:06;17.60;99.90
26583;DHT22;14230;45.382;10.998;2023-03-05T08:10:35;17.00;99.90
26583;DHT22;14230;45.382;10.998;2023-03-05T08:13:03;16.90;99.90
26583;DHT22;14230;45.382;10.998;2023-03-05T08:15:31;17.10;99.90
26583;DHT22;14230;45.382;10.998;2023-03-05T08:17:58;17.50;99.90
26583;DHT22;14230;45.382;10.998;2023-03-05T08:20:26;17.60;99.90
26583;DHT22;14230;45.382;10.998;2023-03-05T08:22:53;17.70;99.90
26583;DHT22;14230;45.382;10.998;2023-03-05T08:25:21;17.40;99.90
26583;DHT22;14230;45.382;10.998;2023-03-05T08:27:48;17.70;99.90
26583;DHT22;14230;45.382;10.998;2023-03-05T08:30:18;17.80;99.90
26583;DHT22;14230;45.382;10.998;2023-03-05T08:32:48;17.60;99.90
26583;DHT22;14230;45.382;10.998;2023-03-05T08:35:16;17.40;99.90
26583;DHT22;14230;45.382;10.998;2023-03-05T08:37:43;17.60;99.90
26583;DHT22;14230;45.382;10.998;2023-03-05T08:40:11;18.20;99.90
26583;DHT22;14230;45.382;10.998;2023-03-05T08:42:38;18.50;99.90
26583;DHT22;14230;45.382;10.998;2023-03-05T08:45:06;18.30;99.90
26583;DHT22;14230;45.382;10.998;2023-03-05T08:47:35;18.20;99.90
26583;DHT22;14230;45.382;10.998;2023-03-05T08:50:02;18.30;99.90
26583;DHT22;14230;45.382;10.998;2023-03-05T08:52:30;17.70;99.90
26583;DHT22;14230;45.382;10.998;2023-03-05T08:54:57;17.20;99.90
26583;DHT22;14230;45.382;10.998;2023-03-05T08:57:25;17.10;99.90
26583;DHT22;14230;45.382;10.998;2023-03-05T08:59:52;17.30;99.90
26583;DHT22;14230;45.382;10.998;2023-03-05T09:02:20;16.80;99.90
26583;DHT22;14230;45.382;10.998;2023-03-05T09:04:47;16.60;99.90
26583;DHT22;14230;45.382;10.998;2023-03-05T09:07:15;16.60;99.90
26583;DHT22;14230;45.382;10.998;2023-03-05T09:09:42;17.00;99.90
26583;DHT22;14230;45.382;10.998;2023-03-05T09:12:10;17.40;99.90
26583;DHT22;14230;45.382;10.998;2023-03-05T09:14:39;18.00;99.90
26583;DHT22;14230;45.382;10.998;2023-03-05T09:17:07;18.30;99.90
26583;DHT22;14230;45.382;10.998;2023-03-05T09:19:35;17.90;99.90
26583;DHT22;14230;45.382;10.998;2023-03-05T09:22:03;17.50;99.90
26583;DHT22;14230;45.382;10.998;2023-03-05T09:24:30;17.80;99.90
26583;DHT22;14230;45.382;10.998;2023-03-05T09:26:58;18.30;99.90
26583;DHT22;14230;45.382;10.998;2023-03-05T09:29:27;18.50;99.90
26583;DHT22;14230;45.382;10.998;2023-03-05T09:31:55;19.00;99.90
26583;DHT22;14230;45.382;10.998;2023-03-05T09:34:23;19.10;99.90
26583;DHT22;14230;45.382;10.998;2023-03-05T09:36:50;19.40;99.90
26583;DHT22;14230;45.382;10.998;2023-03-05T09:39:18;19.10;99.90
26583;DHT22;14230;45.382;10.998;2023-03-05T09:47:44;18.20;99.90
26583;DHT22;14230;45.382;10.998;2023-03-05T09:55:57;17.60;99.90
26583;DHT22;14230;45.382;10.998;2023-03-05T09:58:40;18.00;99.90
26583;DHT22;14230;45.382;10.998;2023-03-05T10:01:28;18.20;99.90
26583;DHT22;14230;45.382;10.998;2023-03-05T10:06:47;19.10;99.90
26583;DHT22;14230;45.382;10.998;2023-03-05T10:09:27;19.00;99.90
26583;DHT22;14230;45.382;10.998;2023-03-05T10:12:07;19.10;99.90
26583;DHT22;14230;45.382;10.998;2023-03-05T10:14:39;19.30;99.90
26583;DHT22;14230;45.382;10.998;2023-03-05T10:31:53;17.00;99.90
26583;DHT22;14230;45.382;10.998;2023-03-05T10:34:57;16.80;99.90
26583;DHT22;14230;45.382;10.998;2023-03-05T10:38:03;16.80;99.90
26583;DHT22;14230;45.382;10.998;2023-03-05T10:40:46;16.80;99.90
26583;DHT22;14230;45.382;10.998;2023-03-05T10:46:04;16.50;99.90
26583;DHT22;14230;45.382;10.998;2023-03-05T10:48:50;16.40;99.90
26583;DHT22;14230;45.382;10.998;2023-03-05T10:51:22;16.70;99.90
26583;DHT22;14230;45.382;10.998;2023-03-05T10:53:56;16.90;99.90
26583;DHT22;14230;45.382;10.998;2023-03-05T10:56:27;17.10;99.90
26583;DHT22;14230;45.382;10.998;2023-03-05T10:58:54;17.40;99.90
26583;DHT22;14230;45.382;10.998;2023-03-05T11:01:27;17.00;99.90
26583;DHT22;14230;45.382;10.998;2023-03-05T11:04:04;17.50;99.90
26583;DHT22;14230;45.382;10.998;2023-03-05T11:06:35;17.90;99.90
26583;DHT22;14230;45.382;10.998;2023-03-05T11:14:38;19.20;99.90
26583;DHT22;14230;45.382;10.998;2023-03-05T11:19:55;19.00;99.90
26583;DHT22;14230;45.382;10.998;2023-03-05T11:22:24;18.60;99.90
26583;DHT22;14230;45.382;10.998;2023-03-05T11:27:50;17.60;99.90
26583;DHT22;14230;45.382;10.998;2023-03-05T11:30:33;17.50;99.90
26583;DHT22;14230;45.382;10.998;2023-03-05T11:33:15;17.20;99.90
26583;DHT22;14230;45.382;10.998;2023-03-05T11:35:44;17.20;99.90
26583;DHT22;14230;45.382;10.998;2023-03-05T11:38:22;16.90;99.90
26583;DHT22;14230;45.382;10.998;2023-03-05T11:40:52;16.90;99.90
26583;DHT22;14230;45.382;10.998;2023-03-05T11:43:23;16.90;99.90
26583;DHT22;14230;45.382;10.998;2023-03-05T11:45:54;16.90;99.90
26583;DHT22;14230;45.382;10.998;2023-03-05T11:48:33;16.80;99.90
26583;DHT22;14230;45.382;10.998;2023-03-05T11:51:08;16.90;99.90
26583;DHT22;14230;45.382;10.998;2023-03-05T11:53:41;16.90;99.90
26583;DHT22;14230;45.382;10.998;2023-03-05T11:56:20;16.80;99.90
26583;DHT22;14230;45.382;10.998;2023-03-05T11:58:56;16.60;99.90
26583;DHT22;14230;45.382;10.998;2023-03-05T12:01:28;16.60;99.90
26583;DHT22;14230;45.382;10.998;2023-03-05T12:03:57;16.60;99.90
26583;DHT22;14230;45.382;10.998;2023-03-05T12:06:36;16.70;99.90
26583;DHT22;14230;45.382;10.998;2023-03-05T12:09:14;16.80;99.90
26583;DHT22;14230;45.382;10.998;2023-03-05T12:11:47;16.90;99.90
26583;DHT22;14230;45.382;10.998;2023-03-05T12:19:46;16.70;99.90
26583;DHT22;14230;45.382;10.998;2023-03-05T12:22:23;16.60;99.90
26583;DHT22;14230;45.382;10.998;2023-03-05T12:24:51;16.60;99.90
26583;DHT22;14230;45.382;10.998;2023-03-05T12:27:33;16.60;99.90
26583;DHT22;14230;45.382;10.998;2023-03-05T12:30:01;16.40;99.90
26583;DHT22;14230;45.382;10.998;2023-03-05T12:35:02;16.50;99.90
26583;DHT22;14230;45.382;10.998;2023-03-05T12:40:20;16.60;99.90
26583;DHT22;14230;45.382;10.998;2023-03-05T12:43:02;16.60;99.90
26583;DHT22;14230;45.382;10.998;2023-03-05T12:45:32;16.60;99.90
26583;DHT22;14230;45.382;10.998;2023-03-05T12:58:26;16.60;99.90
26583;DHT22;14230;45.382;10.998;2023-03-05T13:01:14;16.50;99.90
26583;DHT22;14230;45.382;10.998;2023-03-05T13:06:26;16.20;99.90
26583;DHT22;14230;45.382;10.998;2023-03-05T13:08:56;16.20;99.90
26583;DHT22;14230;45.382;10.998;2023-03-05T13:11:24;16.20;99.90
26583;DHT22;14230;45.382;10.998;2023-03-05T13:13:52;16.30;99.90
26583;DHT22;14230;45.382;10.998;2023-03-05T13:16:36;16.30;99.90
26583;DHT22;14230;45.382;10.998;2023-03-05T13:19:14;16.30;99.90
26583;DHT22;14230;45.382;10.998;2023-03-05T13:21:42;16.40;99.90
26583;DHT22;14230;45.382;10.998;2023-03-05T13:24:17;16.30;99.90
26583;DHT22;14230;45.382;10.998;2023-03-05T13:26:45;16.30;99.90
26583;DHT22;14230;45.382;10.998;2023-03-05T13:29:24;16.20;99.90
26583;DHT22;14230;45.382;10.998;2023-03-05T13:32:01;16.30;99.90
26583;DHT22;14230;45.382;10.998;2023-03-05T13:34:35;16.30;99.90
26583;DHT22;14230;45.382;10.998;2023-03-05T13:37:19;16.20;99.90
26583;DHT22;14230;45.382;10.998;2023-03-05T13:39:54;16.10;99.90
26583;DHT22;14230;45.382;10.998;2023-03-05T13:42:31;16.20;99.90
26583;DHT22;14230;45.382;10.998;2023-03-05T13:45:03;16.20;99.90
26583;DHT22;14230;45.382;10.998;2023-03-05T13:47:34;16.30;99.90
26583;DHT22;14230;45.382;10.998;2023-03-05T13:50:07;16.30;99.90
26583;DHT22;14230;45.382;10.998;2023-03-05T13:52:37;16.30;99.90
26583;DHT22;14230;45.382;10.998;2023-03-05T13:55:12;16.30;99.90
26583;DHT22;14230;45.382;10.998;2023-03-05T13:57:41;16.10;99.90
26583;DHT22;14230;45.382;10.998;2023-03-05T14:00:30;16.10;99.90
26583;DHT22;14230;45.382;10.998;2023-03-05T14:03:15;16.00;99.90
26583;DHT22;14230;45.382;10.998;2023-03-05T14:05:47;16.00;99.90
26583;DHT22;14230;45.382;10.998;2023-03-05T14:08:22;16.10;99.90
26583;DHT22;14230;45.382;10.998;2023-03-05T14:10:56;16.20;99.90
26583;DHT22;14230;45.382;10.998;2023-03-05T14:13:26;16.20;99.90
26583;DHT22;14230;45.382;10.998;2023-03-05T14:16:04;16.20;99.90
26583;DHT22;14230;45.382;10.998;2023-03-05T14:18:32;16.30;99.90
26583;DHT22;14230;45.382;10.998;2023-03-05T14:21:09;16.30;99.90
26583;DHT22;14230;45.382;10.998;2023-03-05T14:23:48;16.20;99.90
26583;DHT22;14230;45.382;10.998;2023-03-05T14:29:16;16.20;99.90
26583;DHT22;14230;45.382;10.998;2023-03-05T14:31:56;16.20;99.90
26583;DHT22;14230;45.382;10.998;2023-03-05T14:34:28;16.20;99.90
26583;DHT22;14230;45.382;10.998;2023-03-05T14:37:02;16.20;99.90
26583;DHT22;14230;45.382;10.998;2023-03-05T14:40:34;16.20;99.90
26583;DHT22;14230;45.382;10.998;2023-03-05T14:45:37;16.10;99.90
26583;DHT22;14230;45.382;10.998;2023-03-05T14:48:06;16.10;99.90
26583;DHT22;14230;45.382;10.998;2023-03-05T14:53:12;16.10;99.90
26583;DHT22;14230;45.382;10.998;2023-03-05T14:55:41;16.10;99.90
26583;DHT22;14230;45.382;10.998;2023-03-05T14:58:13;16.10;99.90
26583;DHT22;14230;45.382;10.998;2023-03-05T15:00:42;16.00;99.90
26583;DHT22;14230;45.382;10.998;2023-03-05T15:03:11;16.00;99.90
26583;DHT22;14230;45.382;10.998;2023-03-05T15:05:39;16.00;99.90
26583;DHT22;14230;45.382;10.998;2023-03-05T15:08:16;15.90;99.90
26583;DHT22;14230;45.382;10.998;2023-03-05T15:10:44;15.80;99.90
26583;DHT22;14230;45.382;10.998;2023-03-05T15:13:14;15.80;99.90
26583;DHT22;14230;45.382;10.998;2023-03-05T15:15:42;15.70;99.90
26583;DHT22;14230;45.382;10.998;2023-03-05T15:18:12;15.70;99.90
26583;DHT22;14230;45.382;10.998;2023-03-05T15:20:40;15.70;99.90
26583;DHT22;14230;45.382;10.998;2023-03-05T15:23:08;15.70;99.90
26583;DHT22;14230;45.382;10.998;2023-03-05T15:25:35;15.70;99.90
26583;DHT22;14230;45.382;10.998;2023-03-05T15:28:02;15.60;99.90
26583;DHT22;14230;45.382;10.998;2023-03-05T15:30:39;15.50;99.90
26583;DHT22;14230;45.382;10.998;2023-03-05T15:33:09;15.50;99.90
26583;DHT22;14230;45.382;10.998;2023-03-05T15:35:37;15.40;99.90
26583;DHT22;14230;45.382;10.998;2023-03-05T15:38:05;15.30;99.90
26583;DHT22;14230;45.382;10.998;2023-03-05T15:40:33;15.30;99.90
26583;DHT22;14230;45.382;10.998;2023-03-05T15:43:00;15.30;99.90
26583;DHT22;14230;45.382;10.998;2023-03-05T15:45:28;15.20;99.90
26583;DHT22;14230;45.382;10.998;2023-03-05T15:47:59;15.10;99.90
26583;DHT22;14230;45.382;10.998;2023-03-05T15:50:27;15.10;99.90
26583;DHT22;14230;45.382;10.998;2023-03-05T15:52:54;15.00;99.90
26583;DHT22;14230;45.382;10.998;2023-03-05T15:55:22;15.00;99.90
26583;DHT22;14230;45.382;10.998;2023-03-05T15:57:51;14.80;99.90
26583;DHT22;14230;45.382;10.998;2023-03-05T16:00:23;14.80;99.90
26583;DHT22;14230;45.382;10.998;2023-03-05T16:02:52;14.80;99.90
26583;DHT22;14230;45.382;10.998;2023-03-05T16:05:19;14.70;99.90
26583;DHT22;14230;45.382;10.998;2023-03-05T16:07:48;14.60;99.90
26583;DHT22;14230;45.382;10.998;2023-03-05T16:10:21;14.60;99.90
26583;DHT22;14230;45.382;10.998;2023-03-05T16:12:53;14.50;99.90
26583;DHT22;14230;45.382;10.998;2023-03-05T16:15:22;14.50;99.90
26583;DHT22;14230;45.382;10.998;2023-03-05T16:17:53;14.40;99.90
26583;DHT22;14230;45.382;10.998;2023-03-05T16:20:21;14.30;99.90
26583;DHT22;14230;45.382;10.998;2023-03-05T16:22:49;14.30;99.90
26583;DHT22;14230;45.382;10.998;2023-03-05T16:25:16;14.20;99.90
26583;DHT22;14230;45.382;10.998;2023-03-05T16:27:44;14.10;99.90
26583;DHT22;14230;45.382;10.998;2023-03-05T16:30:14;14.10;99.90
26583;DHT22;14230;45.382;10.998;2023-03-05T16:32:42;14.00;99.90
26583;DHT22;14230;45.382;10.998;2023-03-05T16:35:10;14.00;99.90
26583;DHT22;14230;45.382;10.998;2023-03-05T16:37:41;13.90;99.90
26583;DHT22;14230;45.382;10.998;2023-03-05T16:40:10;13.80;99.90
26583;DHT22;14230;45.382;10.998;2023-03-05T16:42:38;13.80;99.90
26583;DHT22;14230;45.382;10.998;2023-03-05T16:45:06;13.80;99.90
26583;DHT22;14230;45.382;10.998;2023-03-05T16:47:34;13.70;99.90
26583;DHT22;14230;45.382;10.998;2023-03-05T16:50:05;13.60;99.90
26583;DHT22;14230;45.382;10.998;2023-03-05T16:52:33;13.50;99.90
26583;DHT22;14230;45.382;10.998;2023-03-05T16:55:00;13.50;99.90
26583;DHT22;14230;45.382;10.998;2023-03-05T16:57:27;13.30;99.90
26583;DHT22;14230;45.382;10.998;2023-03-05T16:59:56;13.20;99.90
26583;DHT22;14230;45.382;10.998;2023-03-05T17:02:23;13.00;99.90